Time;durP1;ratioP1;P1;durP2;ratioP2;P2;SDS_P1;SDS_P2;PMS_P1;PMS_P2;Temp;Humidity;BMP_temperature;BMP_pressure;BME280_temperature;BME280_humidity;BME280_pressure;Samples;Min_cycle;Max_cycle;Signal;HPM_P1;HPM_P2
2022/05/16 00:02:07;;;;;;;1.85;1.55;;;;;;;18.46;42.04;96715.69;6225554;23;20024;-79
2022/05/16 00:04:37;;;;;;;3.30;1.58;;;;;;;18.48;42.01;96715.47;6216218;23;20025;-79
2022/05/16 00:07:11;;;;;;;4.88;1.63;;;;;;;18.43;42.27;96713.53;6216570;23;20471;-78
2022/05/16 00:09:40;;;;;;;3.50;1.95;;;;;;;18.36;42.12;96715.44;6211576;23;20021;-78
2022/05/16 00:12:09;;;;;;;1.92;1.50;;;;;;;18.29;42.42;96715.56;6199431;23;20021;-79
2022/05/16 00:14:38;;;;;;;2.47;1.50;;;;;;;18.25;42.68;96716.25;6199147;23;20049;-80
2022/05/16 00:17:06;;;;;;;4.05;1.35;;;;;;;18.18;42.89;96711.06;6198308;23;20013;-78
2022/05/16 00:19:34;;;;;;;1.38;1.27;;;;;;;18.10;43.12;96717.50;6199037;23;20399;-78
2022/05/16 00:22:02;;;;;;;4.32;1.63;;;;;;;17.99;43.41;96714.81;6204108;23;20081;-80
2022/05/16 00:24:30;;;;;;;1.67;1.38;;;;;;;17.90;43.67;96715.13;6197563;23;20023;-78
2022/05/16 00:26:59;;;;;;;2.17;1.67;;;;;;;17.84;43.98;96723.13;6197407;23;20028;-79
2022/05/16 00:29:27;;;;;;;2.97;1.48;;;;;;;17.82;43.76;96722.56;6200199;23;20068;-77
2022/05/16 00:31:56;;;;;;;3.83;1.38;;;;;;;17.79;43.65;96725.63;6198937;23;20488;-77
2022/05/16 00:34:24;;;;;;;1.65;1.55;;;;;;;17.78;43.92;96726.66;6201068;23;20640;-79
2022/05/16 00:36:52;;;;;;;1.75;1.52;;;;;;;17.77;44.00;96725.84;6202073;23;20065;-78
2022/05/16 00:39:21;;;;;;;2.80;1.85;;;;;;;17.75;44.11;96719.19;6200631;23;20350;-78
2022/05/16 00:41:50;;;;;;;2.10;1.60;;;;;;;17.75;44.25;96716.53;6201210;23;20045;-77
2022/05/16 00:44:20;;;;;;;3.45;1.70;;;;;;;17.76;44.09;96712.88;6199963;23;20083;-77
2022/05/16 00:46:48;;;;;;;2.80;1.63;;;;;;;17.80;44.18;96714.03;6196996;23;20064;-77
2022/05/16 00:49:19;;;;;;;3.63;1.63;;;;;;;17.85;44.95;96716.84;6197172;23;20021;-81
2022/05/16 00:51:49;;;;;;;3.60;1.88;;;;;;;17.90;43.88;96709.03;6197818;23;20445;-77
2022/05/16 00:54:21;;;;;;;3.72;1.95;;;;;;;17.90;44.04;96706.41;6201472;23;20031;-79
2022/05/16 00:56:54;;;;;;;2.58;1.52;;;;;;;17.89;44.49;96708.25;6195931;23;20077;-78
2022/05/16 00:59:28;;;;;;;4.88;1.90;;;;;;;17.87;44.49;96698.94;6196687;23;20044;-78
2022/05/16 01:04:50;;;;;;;3.33;1.90;;;;;;;17.82;45.06;96688.25;6196862;23;20029;-76
2022/05/16 01:07:30;;;;;;;2.25;1.60;;;;;;;17.81;45.28;96684.00;6198131;23;20047;-78
2022/05/16 01:09:58;;;;;;;2.03;1.92;;;;;;;17.77;45.37;96682.81;6211020;23;20017;-80
2022/05/16 01:12:32;;;;;;;3.20;2.00;;;;;;;17.76;45.95;96670.69;6230000;23;20071;-78
2022/05/16 01:15:02;;;;;;;2.17;1.73;;;;;;;17.75;45.99;96674.31;6235024;23;20047;-78
2022/05/16 01:17:30;;;;;;;3.58;2.38;;;;;;;17.73;46.32;96665.84;6233705;23;20048;-80
2022/05/16 01:19:57;;;;;;;6.32;2.70;;;;;;;17.73;46.25;96671.09;6235234;23;20021;-80
2022/05/16 01:22:30;;;;;;;3.58;2.20;;;;;;;17.70;46.38;96675.81;6235954;23;20104;-79
2022/05/16 01:25:05;;;;;;;3.00;1.85;;;;;;;17.73;48.07;96677.19;6234853;23;20076;-77
2022/05/16 01:27:41;;;;;;;5.78;1.90;;;;;;;17.76;46.78;96676.75;6228985;23;20075;-79
2022/05/16 01:30:10;;;;;;;2.28;2.08;;;;;;;17.77;46.21;96678.34;6229282;23;20080;-77
2022/05/16 01:32:38;;;;;;;2.97;1.45;;;;;;;17.78;46.06;96671.25;6229112;23;20038;-77
2022/05/16 01:35:07;;;;;;;2.50;1.58;;;;;;;17.81;46.01;96674.22;6229103;23;20016;-77
2022/05/16 01:40:21;;;;;;;3.05;2.03;;;;;;;17.86;45.56;96663.03;6230258;23;20095;-77
2022/05/16 01:42:49;;;;;;;2.95;1.77;;;;;;;17.85;45.86;96664.06;6228831;23;20055;-77
2022/05/16 01:45:17;;;;;;;3.17;2.17;;;;;;;17.83;46.23;96666.13;6228531;23;20028;-77
2022/05/16 01:47:45;;;;;;;3.60;2.03;;;;;;;17.76;46.36;96668.84;6228700;23;20096;-78
2022/05/16 01:50:12;;;;;;;4.47;1.95;;;;;;;17.70;46.71;96678.44;6229511;23;20035;-78
2022/05/16 01:52:41;;;;;;;2.25;1.90;;;;;;;17.67;47.42;96665.72;6228631;23;20103;-78
2022/05/16 01:55:11;;;;;;;3.25;2.30;;;;;;;17.67;46.78;96659.63;6229607;23;20044;-78
2022/05/16 01:57:39;;;;;;;2.50;1.90;;;;;;;17.65;47.09;96659.06;6226737;23;20040;-77
2022/05/16 02:00:10;;;;;;;4.75;1.80;;;;;;;17.66;47.70;96648.25;6228837;23;20068;-76
2022/05/16 02:02:41;;;;;;;2.55;1.65;;;;;;;17.71;49.22;96652.88;6229533;23;20031;-77
2022/05/16 02:05:09;;;;;;;2.25;2.00;;;;;;;17.71;47.77;96645.78;6227741;23;20048;-79
2022/05/16 02:07:37;;;;;;;2.78;2.15;;;;;;;17.73;47.42;96644.72;6227376;23;20091;-78
2022/05/16 02:10:09;;;;;;;2.80;1.77;;;;;;;17.73;47.61;96634.19;6227365;23;20076;-77
2022/05/16 02:12:37;;;;;;;4.60;2.33;;;;;;;17.72;47.84;96638.66;6229659;23;20023;-78
2022/05/16 02:15:09;;;;;;;6.45;1.90;;;;;;;17.71;47.42;96637.84;6231712;23;20536;-78
2022/05/16 02:17:37;;;;;;;2.50;2.28;;;;;;;17.71;47.02;96639.69;6227904;23;20068;-81
2022/05/16 02:20:05;;;;;;;3.03;1.70;;;;;;;17.71;47.24;96653.69;6229035;23;20051;-78
2022/05/16 02:25:20;;;;;;;6.80;2.17;;;;;;;17.79;50.49;96676.28;6229560;23;20175;-78
2022/05/16 02:27:49;;;;;;;2.45;2.03;;;;;;;17.80;47.98;96671.81;6227575;23;20402;-77
2022/05/16 02:30:18;;;;;;;4.22;2.83;;;;;;;17.76;47.62;96671.47;6228001;23;20091;-80
2022/05/16 02:32:45;;;;;;;3.55;2.28;;;;;;;17.75;47.47;96671.69;6227682;23;20040;-77
2022/05/16 02:35:13;;;;;;;7.90;2.30;;;;;;;17.74;47.11;96654.25;6229015;23;20024;-78
2022/05/16 02:37:41;;;;;;;6.35;2.30;;;;;;;17.67;47.25;96652.53;6228811;23;20531;-78
2022/05/16 02:40:09;;;;;;;2.25;2.05;;;;;;;17.61;47.36;96656.06;6227299;23;20072;-77
2022/05/16 02:42:38;;;;;;;2.40;2.03;;;;;;;17.60;47.38;96646.56;6228268;23;20064;-77
2022/05/16 02:45:07;;;;;;;2.30;1.65;;;;;;;17.59;47.29;96639.66;6226142;23;20024;-77
2022/05/16 02:47:36;;;;;;;2.85;1.67;;;;;;;17.59;47.29;96642.28;6225026;23;20085;-77
2022/05/16 02:50:05;;;;;;;1.88;1.60;;;;;;;17.62;47.30;96646.31;6227436;23;20437;-78
2022/05/16 02:52:32;;;;;;;4.90;2.40;;;;;;;17.64;47.20;96631.84;6226722;23;20059;-76
2022/05/16 02:55:01;;;;;;;2.97;2.33;;;;;;;17.68;47.13;96635.66;6226489;23;20100;-78
2022/05/16 02:57:29;;;;;;;2.97;1.88;;;;;;;17.71;47.44;96629.94;6225508;23;20051;-77
2022/05/16 02:59:58;;;;;;;1.65;1.55;;;;;;;17.77;47.78;96633.50;6227356;23;20051;-79
2022/05/16 03:02:27;;;;;;;2.83;1.92;;;;;;;17.80;47.19;96632.22;6231519;23;20051;-77
2022/05/16 03:04:54;;;;;;;3.70;2.05;;;;;;;17.81;47.16;96626.75;6234479;23;20036;-77
2022/05/16 03:07:22;;;;;;;6.15;2.15;;;;;;;17.85;46.80;96637.69;6230661;23;20036;-78
2022/05/16 03:09:50;;;;;;;3.55;1.83;;;;;;;17.86;47.10;96632.19;6229291;23;20096;-77
2022/05/16 03:12:17;;;;;;;4.32;2.25;;;;;;;17.89;46.81;96649.41;6228894;23;20080;-77
2022/05/16 03:14:45;;;;;;;2.30;2.10;;;;;;;17.91;46.73;96647.34;6230419;23;20072;-78
2022/05/16 03:17:14;;;;;;;5.60;2.22;;;;;;;17.91;46.71;96652.63;6228585;23;20052;-78
2022/05/16 03:19:42;;;;;;;2.50;2.22;;;;;;;17.90;46.71;96659.69;6242519;23;20035;-79
2022/05/16 03:22:09;;;;;;;4.78;2.22;;;;;;;17.91;46.80;96655.25;6243133;23;20056;-79
2022/05/16 03:24:37;;;;;;;3.58;2.67;;;;;;;17.92;46.96;96652.38;6238311;23;20072;-78
2022/05/16 03:27:06;;;;;;;3.55;2.25;;;;;;;17.90;47.03;96659.69;6235437;23;20027;-79
2022/05/16 03:29:34;;;;;;;5.60;2.25;;;;;;;17.90;46.89;96651.00;6235299;23;20032;-78
2022/05/16 03:32:01;;;;;;;4.75;2.00;;;;;;;17.90;47.29;96646.50;6229336;23;20044;-77
2022/05/16 03:34:31;;;;;;;3.63;2.45;;;;;;;17.92;47.07;96648.94;6228267;23;20027;-78
2022/05/16 03:36:58;;;;;;;2.92;2.38;;;;;;;17.92;47.11;96656.84;6227326;23;20076;-78
2022/05/16 03:42:11;;;;;;;3.65;2.35;;;;;;;17.96;47.76;96657.22;6233421;23;20052;-78
2022/05/16 03:44:39;;;;;;;2.65;2.10;;;;;;;17.94;47.38;96651.34;6228936;23;20052;-77
2022/05/16 03:47:07;;;;;;;2.90;2.15;;;;;;;17.92;47.60;96670.03;6228633;23;20047;-76
2022/05/16 03:49:36;;;;;;;4.80;2.40;;;;;;;17.90;47.41;96664.19;6228099;23;20042;-78
2022/05/16 03:52:04;;;;;;;3.63;2.42;;;;;;;17.89;47.65;96665.22;6232364;23;20040;-76
2022/05/16 03:54:31;;;;;;;4.75;2.05;;;;;;;17.88;47.62;96674.16;6227925;23;20040;-77
2022/05/16 03:56:59;;;;;;;2.80;2.40;;;;;;;17.90;47.69;96669.47;6229347;23;20043;-80
2022/05/16 03:59:27;;;;;;;4.13;2.42;;;;;;;17.91;47.37;96677.16;6228878;23;20072;-77
2022/05/16 04:01:54;;;;;;;3.53;2.10;;;;;;;17.94;47.31;96678.53;6228408;23;20439;-78
2022/05/16 04:04:22;;;;;;;3.42;2.35;;;;;;;17.96;47.14;96681.75;6227593;23;20032;-78
2022/05/16 04:06:51;;;;;;;3.65;2.33;;;;;;;18.00;46.59;96688.19;6232483;23;20021;-78
2022/05/16 04:09:18;;;;;;;5.90;2.70;;;;;;;18.03;46.29;96681.66;6231793;23;20398;-78
2022/05/16 04:11:46;;;;;;;2.85;2.33;;;;;;;18.05;46.33;96684.88;6233413;23;20035;-78
2022/05/16 04:14:14;;;;;;;4.55;2.40;;;;;;;18.06;46.34;96676.75;6235426;23;20048;-79
2022/05/16 04:16:41;;;;;;;3.47;2.35;;;;;;;18.06;46.14;96670.63;6230226;23;20051;-80
2022/05/16 04:19:09;;;;;;;2.92;2.63;;;;;;;18.07;46.08;96677.53;6228955;23;20096;-77
2022/05/16 04:21:39;;;;;;;3.95;2.13;;;;;;;18.08;46.06;96682.59;6229838;23;20487;-77
2022/05/16 04:24:09;;;;;;;2.92;2.50;;;;;;;18.08;46.04;96682.59;6229788;23;20021;-78
2022/05/16 04:26:36;;;;;;;2.17;1.98;;;;;;;18.06;46.02;96675.91;6227840;23;20031;-78
2022/05/16 04:29:05;;;;;;;3.60;2.30;;;;;;;18.01;45.78;96689.00;6230040;23;20149;-80
2022/05/16 04:31:32;;;;;;;2.30;2.10;;;;;;;17.96;46.09;96679.13;6231864;23;20031;-79
2022/05/16 04:34:00;;;;;;;3.35;2.33;;;;;;;17.94;46.05;96678.53;6231174;23;20025;-78
2022/05/16 04:36:28;;;;;;;4.72;2.63;;;;;;;17.94;46.21;96677.75;6228798;23;20024;-77
2022/05/16 04:38:55;;;;;;;4.38;2.42;;;;;;;17.92;46.22;96683.25;6227420;23;20100;-78
2022/05/16 04:44:11;;;;;;;2.72;2.10;;;;;;;17.90;46.21;96690.56;6227357;23;20096;-77
2022/05/16 04:46:38;;;;;;;3.30;2.13;;;;;;;17.90;46.76;96701.94;6231204;23;20428;-79
2022/05/16 04:49:06;;;;;;;2.70;2.13;;;;;;;17.92;47.88;96707.78;6230332;23;20390;-80
2022/05/16 04:51:33;;;;;;;4.90;2.00;;;;;;;17.96;48.21;96697.59;6230115;23;20156;-77
2022/05/16 04:54:01;;;;;;;7.60;2.70;;;;;;;17.99;47.39;96710.31;6225840;23;20016;-77
2022/05/16 04:56:30;;;;;;;6.45;3.30;;;;;;;18.01;47.34;96710.09;6225869;23;20029;-76
2022/05/16 04:58:58;;;;;;;7.95;3.90;;;;;;;18.00;46.75;96701.41;6225678;23;20048;-79
2022/05/16 05:01:25;;;;;;;5.57;2.20;;;;;;;18.01;46.49;96703.00;6225862;23;20055;-76
2022/05/16 05:03:53;;;;;;;5.65;2.92;;;;;;;18.03;46.29;96708.06;6227329;23;20598;-79
2022/05/16 05:06:21;;;;;;;2.75;1.98;;;;;;;18.06;46.89;96708.41;6226432;23;20028;-78
2022/05/16 05:08:48;;;;;;;4.28;2.83;;;;;;;18.08;46.18;96706.34;6226358;23;20095;-79
2022/05/16 05:16:48;;;;;;;8.25;2.40;;;;;;;18.08;46.39;96711.63;6228704;23;20020;-78
2022/05/16 05:19:16;;;;;;;3.58;2.38;;;;;;;18.10;46.28;96714.84;6228922;23;20020;-79
2022/05/16 05:21:43;;;;;;;3.67;2.38;;;;;;;18.11;46.61;96716.44;6229788;23;20091;-78
2022/05/16 05:24:11;;;;;;;3.67;2.50;;;;;;;18.14;46.66;96711.75;6231453;23;20017;-80
2022/05/16 05:26:42;;;;;;;2.90;2.58;;;;;;;18.16;46.66;96717.59;6229316;23;20020;-80
2022/05/16 05:29:12;;;;;;;4.30;2.88;;;;;;;18.18;46.83;96715.53;6231791;23;20044;-77
2022/05/16 05:31:41;;;;;;;2.88;2.47;;;;;;;18.19;46.85;96717.13;6229436;23;20012;-77
2022/05/16 05:34:11;;;;;;;3.28;2.72;;;;;;;18.19;46.79;96723.25;6229503;23;20024;-78
2022/05/16 05:36:39;;;;;;;8.40;2.70;;;;;;;18.19;47.04;96731.16;6228303;23;20095;-80
2022/05/16 05:39:07;;;;;;;3.90;3.00;;;;;;;18.23;47.06;96726.22;6227923;23;20031;-77
2022/05/16 05:41:35;;;;;;;6.55;3.13;;;;;;;18.25;47.14;96730.25;6228968;23;20017;-76
2022/05/16 05:44:03;;;;;;;12.23;3.15;;;;;;;18.26;47.13;96729.22;6227790;23;20059;-77
2022/05/16 05:46:36;;;;;;;2.63;2.25;;;;;;;18.27;47.09;96728.19;6226192;23;20075;-80
2022/05/16 05:49:05;;;;;;;7.85;2.70;;;;;;;18.29;47.29;96728.75;6228131;23;20477;-77
2022/05/16 05:51:33;;;;;;;12.70;3.70;;;;;;;18.33;47.21;96729.91;6227464;23;20108;-77
2022/05/16 05:54:00;;;;;;;17.73;4.50;;;;;;;18.36;47.25;96720.72;6227177;23;20027;-79
2022/05/16 05:56:28;;;;;;;21.33;4.97;;;;;;;18.40;47.44;96723.72;6226880;23;20047;-77
2022/05/16 05:58:56;;;;;;;11.32;3.92;;;;;;;18.43;47.66;96728.53;6225683;23;20048;-84
2022/05/16 06:01:25;;;;;;;19.95;4.25;;;;;;;18.45;48.09;96727.28;6225235;23;20023;-85
2022/05/16 06:03:54;;;;;;;22.88;4.75;;;;;;;18.46;48.51;96728.09;6226180;23;20024;-83
2022/05/16 06:06:22;;;;;;;22.73;4.68;;;;;;;18.49;48.48;96732.91;6223098;23;20469;-80
2022/05/16 06:08:50;;;;;;;10.27;3.22;;;;;;;18.50;48.98;96737.97;6224363;23;20058;-82
2022/05/16 06:11:17;;;;;;;10.65;2.92;;;;;;;18.52;49.00;96735.91;6171334;23;20031;-79
2022/05/16 06:13:45;;;;;;;12.73;4.05;;;;;;;18.55;49.53;96739.13;6185753;23;20032;-78
2022/05/16 06:16:12;;;;;;;6.90;3.53;;;;;;;18.56;49.77;96740.72;6181734;23;20025;-78
2022/05/16 06:18:41;;;;;;;3.28;2.97;;;;;;;18.56;49.60;96748.66;6185907;23;20025;-77
2022/05/16 06:21:10;;;;;;;4.65;3.25;;;;;;;18.57;49.89;96750.28;6185839;23;20092;-78
2022/05/16 06:23:37;;;;;;;4.13;3.47;;;;;;;18.59;49.60;96759.59;6186627;23;20076;-77
2022/05/16 06:26:05;;;;;;;6.55;3.58;;;;;;;18.60;49.66;96761.16;6184675;23;20035;-77
2022/05/16 06:28:37;;;;;;;8.93;3.53;;;;;;;18.62;50.02;96760.97;6185840;23;20100;-78
2022/05/16 06:31:05;;;;;;;6.80;3.10;;;;;;;18.65;50.44;96773.69;6185638;23;20028;-78
2022/05/16 06:33:33;;;;;;;5.40;3.33;;;;;;;18.67;50.87;96784.84;6185380;23;20068;-77
2022/05/16 06:36:02;;;;;;;6.78;3.85;;;;;;;18.68;51.40;96774.06;6185051;23;20032;-77
2022/05/16 06:38:34;;;;;;;8.90;3.95;;;;;;;18.68;52.67;96758.19;6185359;23;20085;-77
2022/05/16 06:41:02;;;;;;;5.25;3.38;;;;;;;18.64;53.22;96764.16;6185215;23;20013;-78
2022/05/16 06:43:30;;;;;;;3.70;3.28;;;;;;;18.59;54.13;96785.19;6186018;23;20017;-79
2022/05/16 06:45:59;;;;;;;7.22;3.03;;;;;;;18.58;54.44;96775.66;6184930;23;20037;-78
2022/05/16 06:48:27;;;;;;;5.50;3.17;;;;;;;18.58;54.48;96786.22;6185849;23;20025;-78
2022/05/16 06:50:55;;;;;;;5.30;3.05;;;;;;;18.56;54.90;96788.28;6185892;23;20027;-77
2022/05/16 06:53:26;;;;;;;4.60;3.50;;;;;;;18.53;55.46;96792.97;6186203;23;20021;-78
2022/05/16 06:55:56;;;;;;;5.47;3.65;;;;;;;18.51;55.37;96795.03;6184367;23;20017;-79
2022/05/16 06:58:24;;;;;;;6.00;3.30;;;;;;;18.48;55.38;96806.06;6186046;23;20039;-78
2022/05/16 07:00:52;;;;;;;7.95;3.45;;;;;;;18.47;55.63;96801.81;6186219;23;20115;-77
2022/05/16 07:03:20;;;;;;;5.45;4.00;;;;;;;18.45;56.01;96811.78;6185708;23;20028;-78
2022/05/16 07:05:50;;;;;;;6.38;3.28;;;;;;;18.40;56.02;96801.13;6184623;23;20029;-79
2022/05/16 07:08:19;;;;;;;4.55;2.83;;;;;;;18.37;56.36;96812.16;6185616;23;20021;-77
2022/05/16 07:10:48;;;;;;;4.20;2.63;;;;;;;18.32;56.82;96817.28;6173814;23;20031;-78
2022/05/16 07:13:23;;;;;;;6.32;3.00;;;;;;;18.28;56.99;96826.72;6175732;23;20078;-78
2022/05/16 07:15:51;;;;;;;3.85;2.83;;;;;;;18.25;57.40;96827.13;6173765;23;20398;-79
2022/05/16 07:18:19;;;;;;;5.13;3.10;;;;;;;18.23;57.52;96822.06;6161642;23;20026;-77
2022/05/16 07:20:48;;;;;;;4.68;3.33;;;;;;;18.25;57.66;96829.78;6156101;23;20349;-78
2022/05/16 07:23:16;;;;;;;3.50;2.83;;;;;;;18.26;58.36;96824.28;6156052;23;20354;-78
2022/05/16 07:28:30;;;;;;;4.05;2.20;;;;;;;18.31;58.55;96834.16;6155830;23;20024;-78
2022/05/16 07:30:58;;;;;;;3.65;2.47;;;;;;;18.33;58.58;96850.59;6165035;23;20029;-79
2022/05/16 07:33:26;;;;;;;2.67;2.47;;;;;;;18.37;58.62;96867.59;6176160;23;20030;-78
2022/05/16 07:35:55;;;;;;;6.60;2.65;;;;;;;18.41;58.43;96857.38;6173609;23;20033;-79
2022/05/16 07:38:25;;;;;;;4.05;2.95;;;;;;;18.46;58.35;96854.88;6162995;23;20415;-78
2022/05/16 07:40:54;;;;;;;4.45;2.08;;;;;;;18.50;58.24;96864.78;6156023;23;20018;-78
2022/05/16 07:43:22;;;;;;;3.78;1.67;;;;;;;18.55;57.79;96868.56;6155504;23;20021;-78
2022/05/16 07:45:51;;;;;;;3.53;2.03;;;;;;;18.59;57.75;96869.75;6154286;23;20029;-78
2022/05/16 07:48:19;;;;;;;3.85;1.70;;;;;;;18.62;57.89;96866.63;6155013;23;20022;-77
2022/05/16 07:50:48;;;;;;;3.60;2.08;;;;;;;18.67;57.98;96878.16;6154685;23;20022;-78
2022/05/16 07:53:16;;;;;;;3.50;2.15;;;;;;;18.72;57.84;96880.09;6155295;23;20068;-78
2022/05/16 07:55:45;;;;;;;3.28;2.42;;;;;;;18.78;58.03;96886.34;6155594;23;20025;-79
2022/05/16 07:58:13;;;;;;;3.55;2.63;;;;;;;18.84;58.05;96872.22;6155569;23;20365;-78
2022/05/16 08:00:42;;;;;;;4.60;1.85;;;;;;;18.88;58.26;96868.09;6154912;23;20017;-78
2022/05/16 08:03:12;;;;;;;4.43;2.05;;;;;;;18.91;58.83;96868.47;6154839;23;20561;-79
2022/05/16 08:05:40;;;;;;;3.83;2.35;;;;;;;18.97;59.17;96863.28;6154405;23;20096;-78
2022/05/16 08:10:54;;;;;;;5.15;2.65;;;;;;;19.00;59.45;96852.25;6155226;23;20357;-78
2022/05/16 08:13:28;;;;;;;5.75;3.90;;;;;;;18.99;60.01;96861.22;6155789;23;20021;-78
2022/05/16 08:15:56;;;;;;;3.15;2.85;;;;;;;18.94;60.25;96859.25;6154029;23;20037;-78
2022/05/16 08:18:26;;;;;;;2.20;2.08;;;;;;;18.92;60.53;96863.97;6155328;23;20068;-79
2022/05/16 08:20:54;;;;;;;5.72;2.67;;;;;;;18.93;60.67;96861.09;6154457;23;20028;-79
2022/05/16 08:23:25;;;;;;;2.63;2.15;;;;;;;18.95;60.92;96863.50;6154274;23;20045;-77
2022/05/16 08:25:53;;;;;;;3.33;2.60;;;;;;;18.98;61.01;96862.22;6154416;23;20021;-79
2022/05/16 08:28:22;;;;;;;4.63;2.58;;;;;;;18.98;61.02;96878.09;6154808;23;20028;-77
2022/05/16 08:30:50;;;;;;;4.50;2.53;;;;;;;19.01;61.26;96882.94;6156170;23;20013;-79
2022/05/16 08:33:18;;;;;;;4.10;2.90;;;;;;;19.03;61.60;96880.88;6156277;23;20092;-77
2022/05/16 08:39:52;;;;;;;3.65;2.38;;;;;;;19.07;61.78;96882.03;6156240;23;20021;-78
2022/05/16 08:41:28;;;;;;;5.38;2.58;;;;;;;19.15;61.53;96892.25;6164727;23;20018;-78
2022/05/16 08:44:07;;;;;;;4.05;2.75;;;;;;;19.20;61.31;96887.09;6166482;23;20362;-79
2022/05/16 08:46:36;;;;;;;3.65;2.50;;;;;;;19.25;60.65;96889.84;6163761;23;20431;-80
2022/05/16 08:49:18;;;;;;;4.00;2.38;;;;;;;19.33;61.31;96888.72;6156153;23;20028;-77
2022/05/16 08:51:54;;;;;;;4.00;2.58;;;;;;;19.40;60.71;96896.53;6156217;23;20493;-77
2022/05/16 08:54:37;;;;;;;7.03;3.22;;;;;;;19.47;61.22;96898.00;6156582;23;20028;-77
2022/05/16 08:57:09;;;;;;;3.28;2.53;;;;;;;19.56;60.72;96895.81;6155394;23;20024;-78
2022/05/16 08:59:42;;;;;;;4.65;3.05;;;;;;;19.64;60.93;96908.69;6155700;23;20741;-78
2022/05/16 09:02:20;;;;;;;6.30;3.40;;;;;;;19.72;61.19;96895.16;6156462;23;20027;-77
2022/05/16 09:04:53;;;;;;;8.88;3.40;;;;;;;19.81;60.91;96900.06;6156471;23;20072;-79
2022/05/16 09:07:27;;;;;;;5.10;3.00;;;;;;;19.89;61.11;96899.72;6155463;23;20089;-79
2022/05/16 09:10:02;;;;;;;5.65;3.00;;;;;;;19.98;61.60;96894.84;6156232;23;20022;-79
2022/05/16 09:12:35;;;;;;;4.47;3.00;;;;;;;20.02;60.85;96896.81;6156566;23;20018;-78
2022/05/16 09:15:13;;;;;;;4.07;2.58;;;;;;;20.07;60.85;96902.22;6156457;23;20529;-79
2022/05/16 09:17:53;;;;;;;4.75;2.90;;;;;;;20.13;61.05;96889.88;6156126;23;20025;-77
2022/05/16 09:20:30;;;;;;;5.75;3.05;;;;;;;20.17;60.48;96891.81;6156375;23;20021;-78
2022/05/16 09:23:07;;;;;;;3.88;2.95;;;;;;;20.22;60.24;96892.94;6156630;23;20100;-77
2022/05/16 09:25:42;;;;;;;5.20;2.58;;;;;;;20.25;60.16;96882.69;6156411;23;20104;-78
2022/05/16 09:31:00;;;;;;;3.30;2.72;;;;;;;20.37;59.13;96883.44;6156569;23;20049;-78
2022/05/16 09:33:31;;;;;;;3.72;2.78;;;;;;;20.42;58.90;96882.72;6156927;23;20397;-77
2022/05/16 09:36:04;;;;;;;5.78;3.03;;;;;;;20.47;58.35;96877.53;6156241;23;20017;-77
2022/05/16 09:38:33;;;;;;;3.03;2.35;;;;;;;20.53;58.30;96889.00;6156323;23;20335;-76
2022/05/16 09:41:11;;;;;;;5.82;2.78;;;;;;;20.59;58.16;96888.09;6155466;23;20031;-78
2022/05/16 09:43:43;;;;;;;33.95;7.40;;;;;;;20.64;58.38;96882.06;6157114;23;20025;-78
2022/05/16 09:46:23;;;;;;;41.85;8.52;;;;;;;20.71;58.21;96885.41;6156251;23;20025;-78
2022/05/16 09:49:04;;;;;;;12.15;4.38;;;;;;;20.78;58.07;96899.28;6157884;23;20029;-79
2022/05/16 09:51:39;;;;;;;6.25;3.03;;;;;;;20.83;58.11;96904.66;6158258;23;20049;-78
2022/05/16 09:54:15;;;;;;;9.38;3.47;;;;;;;20.89;58.04;96897.63;6158369;23;20496;-79
2022/05/16 09:57:18;;;;;;;3.60;2.55;;;;;;;20.94;57.57;96906.44;6162995;23;20021;-78
2022/05/16 09:59:50;;;;;;;7.25;2.67;;;;;;;20.98;58.04;96910.22;6137237;23;20033;-79
2022/05/16 10:02:24;;;;;;;4.07;2.50;;;;;;;21.03;58.18;96909.50;6160586;23;20093;-79
2022/05/16 10:04:56;;;;;;;4.00;2.83;;;;;;;21.07;57.99;96904.53;6159248;23;20100;-79
2022/05/16 10:07:32;;;;;;;4.33;3.20;;;;;;;21.11;58.33;96906.44;6157830;23;20025;-77
2022/05/16 10:10:02;;;;;;;4.32;3.17;;;;;;;21.17;58.31;96910.00;6159564;23;20021;-79
2022/05/16 10:12:30;;;;;;;4.85;2.85;;;;;;;21.20;58.28;96910.31;6160792;23;20022;-78
2022/05/16 10:14:59;;;;;;;4.97;2.22;;;;;;;21.24;58.37;96900.03;6161592;23;20458;-79
2022/05/16 10:17:33;;;;;;;9.10;3.03;;;;;;;21.28;58.22;96895.84;6159955;23;20053;-77
2022/05/16 10:20:10;;;;;;;4.03;2.42;;;;;;;21.32;58.21;96904.13;6161032;23;20382;-79
2022/05/16 10:22:38;;;;;;;7.50;3.00;;;;;;;21.37;58.01;96898.88;6160888;23;20051;-79
2022/05/16 10:25:32;;;;;;;6.45;3.35;;;;;;;21.44;58.12;96898.75;6162912;23;20032;-85
2022/05/16 10:28:03;;;;;;;6.15;3.08;;;;;;;21.48;58.05;96898.00;6157457;23;20522;-77
2022/05/16 10:33:24;;;;;;;4.65;3.10;;;;;;;21.51;57.93;96900.16;6154936;23;20418;-79
2022/05/16 10:33:26;;;;;;;8.98;3.35;;;;;;;21.54;57.33;96899.69;6160873;23;20022;-78
2022/05/16 10:35:59;;;;;;;3.58;2.35;;;;;;;21.58;56.60;96897.34;6158848;23;20028;-79
2022/05/16 10:38:43;;;;;;;4.80;2.40;;;;;;;21.61;55.75;96896.88;6160038;23;20028;-79
2022/05/16 10:41:18;;;;;;;3.25;2.65;;;;;;;21.63;55.44;96889.47;6159345;23;20044;-78
2022/05/16 10:43:56;;;;;;;3.40;2.40;;;;;;;21.66;54.65;96894.28;6160871;23;20021;-79
2022/05/16 10:46:27;;;;;;;4.18;2.75;;;;;;;21.68;53.75;96889.53;6158328;23;20450;-79
2022/05/16 10:49:01;;;;;;;4.22;2.78;;;;;;;21.71;53.85;96882.91;6158354;23;20033;-80
2022/05/16 10:51:39;;;;;;;54.58;6.50;;;;;;;21.73;52.03;96886.13;6159938;23;20100;-79
2022/05/16 10:54:12;;;;;;;3.13;2.17;;;;;;;21.76;53.09;96889.09;6158708;23;20021;-79
2022/05/16 10:57:16;;;;;;;4.95;3.40;;;;;;;21.83;53.63;96883.59;6158954;23;20022;-78
2022/05/16 10:59:59;;;;;;;4.53;2.35;;;;;;;21.89;52.44;96884.50;6155701;23;20053;-80
2022/05/16 11:02:49;;;;;;;4.47;2.30;;;;;;;21.94;52.75;96887.19;6162523;23;20100;-80
2022/05/16 11:05:32;;;;;;;3.35;2.58;;;;;;;21.98;50.96;96893.63;6162239;23;20021;-79
2022/05/16 11:08:08;;;;;;;2.90;2.42;;;;;;;22.02;51.25;96892.88;6158463;23;20025;-79
2022/05/16 11:10:41;;;;;;;5.07;2.60;;;;;;;22.08;51.41;96892.94;6158003;23;20128;-79
2022/05/16 11:13:20;;;;;;;4.85;2.25;;;;;;;22.11;51.54;96893.25;6158115;23;20096;-79
2022/05/16 11:15:56;;;;;;;3.22;2.40;;;;;;;22.16;51.21;96890.63;6157976;23;20029;-79
2022/05/16 11:18:32;;;;;;;3.58;2.10;;;;;;;22.20;51.14;96886.44;6158875;23;20057;-79
2022/05/16 11:21:24;;;;;;;2.67;1.92;;;;;;;22.24;51.39;96877.97;6158548;23;20032;-79
2022/05/16 11:23:56;;;;;;;4.25;2.25;;;;;;;22.30;51.52;96883.13;6158125;23;20025;-79
2022/05/16 11:26:29;;;;;;;5.25;2.83;;;;;;;22.35;50.96;96885.84;6157791;23;20028;-79
2022/05/16 11:29:17;;;;;;;3.50;2.42;;;;;;;22.41;51.01;96886.66;6158447;23;20025;-79
2022/05/16 11:31:56;;;;;;;3.55;2.25;;;;;;;22.47;51.08;96884.88;6158201;23;20354;-79
2022/05/16 11:34:32;;;;;;;2.95;2.47;;;;;;;22.51;50.76;96883.31;6158086;23;20041;-79
2022/05/16 11:37:13;;;;;;;5.07;2.97;;;;;;;22.55;50.70;96882.56;6157542;23;20028;-79
2022/05/16 11:39:49;;;;;;;5.15;2.85;;;;;;;22.60;50.69;96873.84;6157224;23;20017;-79
2022/05/16 11:42:27;;;;;;;3.75;2.42;;;;;;;22.62;50.83;96871.72;6157823;23;20021;-79
2022/05/16 11:45:05;;;;;;;2.58;2.38;;;;;;;22.66;50.86;96872.03;6158197;23;20018;-79
2022/05/16 11:47:38;;;;;;;5.88;2.75;;;;;;;22.69;50.84;96861.69;6158009;23;20104;-80
2022/05/16 11:50:31;;;;;;;3.30;2.80;;;;;;;22.76;51.06;96867.63;6158627;23;20028;-79
2022/05/16 11:53:18;;;;;;;5.10;2.50;;;;;;;22.82;50.87;96873.75;6159799;23;20026;-79
2022/05/16 12:01:32;;;;;;;6.35;2.70;;;;;;;22.89;50.48;96890.31;6171508;23;20021;-80
2022/05/16 12:04:13;;;;;;;5.43;2.97;;;;;;;22.90;50.22;96881.28;6160634;23;20053;-79
2022/05/16 12:06:45;;;;;;;3.37;3.07;;;;;;;22.90;50.64;96878.63;6159681;23;20021;-78
2022/05/16 12:09:19;;;;;;;8.05;2.95;;;;;;;22.89;50.65;96882.31;6162638;23;20081;-80
2022/05/16 12:21:01;;;;;;;9.85;2.40;;;;;;;22.58;49.08;96910.50;6182955;23;20018;-79
2022/05/16 12:29:18;;;;;;;4.75;2.53;;;;;;;22.15;51.03;96951.97;6175722;23;20039;-79
2022/05/16 12:39:00;;;;;;;4.60;2.60;;;;;;;21.76;52.38;96976.72;6170266;23;20022;-79
2022/05/16 12:42:02;;;;;;;7.03;2.85;;;;;;;21.63;53.42;96970.97;6182263;23;20022;-78
2022/05/16 12:48:22;;;;;;;7.75;2.95;;;;;;;21.51;55.92;96985.09;6189811;23;20211;-79
2022/05/16 12:51:22;;;;;;;8.13;2.72;;;;;;;21.46;56.83;96994.84;6242375;23;20017;-79
2022/05/16 12:54:54;;;;;;;3.00;2.05;;;;;;;21.38;57.51;97004.81;6242656;23;20004;-79
2022/05/16 12:57:54;;;;;;;9.10;2.35;;;;;;;21.26;58.42;97013.88;6242644;23;20021;-78